sensor_id;sensor_type;location;lat;lon;timestamp;temperature;humidity
60309;DHT22;50313;52.894;6.492;2022-12-04T00:02:17;0.60;99.90
60309;DHT22;50313;52.894;6.492;2022-12-04T00:04:43;0.60;99.90
60309;DHT22;50313;52.894;6.492;2022-12-04T00:07:09;0.60;99.90
60309;DHT22;50313;52.894;6.492;2022-12-04T00:09:35;0.60;99.90
60309;DHT22;50313;52.894;6.492;2022-12-04T00:12:00;0.70;99.90
60309;DHT22;50313;52.894;6.492;2022-12-04T00:14:26;0.60;99.90
60309;DHT22;50313;52.894;6.492;2022-12-04T00:16:52;0.70;99.90
60309;DHT22;50313;52.894;6.492;2022-12-04T00:19:18;0.60;99.90
60309;DHT22;50313;52.894;6.492;2022-12-04T00:21:44;0.70;99.90
60309;DHT22;50313;52.894;6.492;2022-12-04T00:24:10;0.60;99.90
60309;DHT22;50313;52.894;6.492;2022-12-04T00:26:36;0.70;99.90
60309;DHT22;50313;52.894;6.492;2022-12-04T00:29:02;0.70;99.90
60309;DHT22;50313;52.894;6.492;2022-12-04T00:31:29;0.70;99.90
60309;DHT22;50313;52.894;6.492;2022-12-04T00:33:56;0.70;99.90
60309;DHT22;50313;52.894;6.492;2022-12-04T00:36:25;0.70;99.90
60309;DHT22;50313;52.894;6.492;2022-12-04T00:38:50;0.70;99.90
60309;DHT22;50313;52.894;6.492;2022-12-04T00:41:20;0.70;99.90
60309;DHT22;50313;52.894;6.492;2022-12-04T00:43:46;0.70;99.90
60309;DHT22;50313;52.894;6.492;2022-12-04T00:46:12;0.80;99.90
60309;DHT22;50313;52.894;6.492;2022-12-04T00:48:38;0.70;99.90
60309;DHT22;50313;52.894;6.492;2022-12-04T00:51:10;0.70;99.90
60309;DHT22;50313;52.894;6.492;2022-12-04T00:53:36;0.70;99.90
60309;DHT22;50313;52.894;6.492;2022-12-04T00:56:04;0.70;99.90
60309;DHT22;50313;52.894;6.492;2022-12-04T00:58:30;0.70;99.90
60309;DHT22;50313;52.894;6.492;2022-12-04T01:01:11;0.70;99.90
60309;DHT22;50313;52.894;6.492;2022-12-04T01:03:37;0.70;99.90
60309;DHT22;50313;52.894;6.492;2022-12-04T01:06:03;0.80;99.90
60309;DHT22;50313;52.894;6.492;2022-12-04T01:08:30;0.70;99.90
60309;DHT22;50313;52.894;6.492;2022-12-04T01:10:56;0.70;99.90
60309;DHT22;50313;52.894;6.492;2022-12-04T01:13:23;0.70;99.90
60309;DHT22;50313;52.894;6.492;2022-12-04T01:15:49;0.70;99.90
60309;DHT22;50313;52.894;6.492;2022-12-04T01:18:15;0.70;99.90
60309;DHT22;50313;52.894;6.492;2022-12-04T01:20:50;0.70;99.90
60309;DHT22;50313;52.894;6.492;2022-12-04T01:23:17;0.70;99.90
60309;DHT22;50313;52.894;6.492;2022-12-04T01:25:55;0.70;99.90
60309;DHT22;50313;52.894;6.492;2022-12-04T01:28:22;0.70;99.90
60309;DHT22;50313;52.894;6.492;2022-12-04T01:31:03;0.70;99.90
60309;DHT22;50313;52.894;6.492;2022-12-04T01:33:31;0.60;99.90
60309;DHT22;50313;52.894;6.492;2022-12-04T01:35:58;0.70;99.90
60309;DHT22;50313;52.894;6.492;2022-12-04T01:38:25;0.60;99.90
60309;DHT22;50313;52.894;6.492;2022-12-04T01:40:51;0.70;99.90
60309;DHT22;50313;52.894;6.492;2022-12-04T01:43:18;0.70;99.90
60309;DHT22;50313;52.894;6.492;2022-12-04T01:45:48;0.70;99.90
60309;DHT22;50313;52.894;6.492;2022-12-04T01:48:18;0.70;99.90
60309;DHT22;50313;52.894;6.492;2022-12-04T01:50:45;0.70;99.90
60309;DHT22;50313;52.894;6.492;2022-12-04T01:53:11;0.70;99.90
60309;DHT22;50313;52.894;6.492;2022-12-04T01:55:38;0.70;99.90
60309;DHT22;50313;52.894;6.492;2022-12-04T01:58:03;0.70;99.90
60309;DHT22;50313;52.894;6.492;2022-12-04T02:00:30;0.70;99.90
60309;DHT22;50313;52.894;6.492;2022-12-04T02:02:57;0.60;99.90
60309;DHT22;50313;52.894;6.492;2022-12-04T02:05:23;0.60;99.90
60309;DHT22;50313;52.894;6.492;2022-12-04T02:07:51;0.70;99.90
60309;DHT22;50313;52.894;6.492;2022-12-04T02:10:18;0.70;99.90
60309;DHT22;50313;52.894;6.492;2022-12-04T02:21:35;0.60;99.90
60309;DHT22;50313;52.894;6.492;2022-12-04T02:24:34;0.60;99.90
60309;DHT22;50313;52.894;6.492;2022-12-04T02:27:05;0.60;99.90
60309;DHT22;50313;52.894;6.492;2022-12-04T02:29:47;0.60;99.90
60309;DHT22;50313;52.894;6.492;2022-12-04T02:32:32;0.60;99.90
60309;DHT22;50313;52.894;6.492;2022-12-04T02:35:07;0.60;99.90
60309;DHT22;50313;52.894;6.492;2022-12-04T02:37:38;0.60;99.90
60309;DHT22;50313;52.894;6.492;2022-12-04T02:40:36;0.60;99.90
60309;DHT22;50313;52.894;6.492;2022-12-04T02:43:19;0.60;99.90
60309;DHT22;50313;52.894;6.492;2022-12-04T02:46:13;0.60;99.90
60309;DHT22;50313;52.894;6.492;2022-12-04T02:48:44;0.60;99.90
60309;DHT22;50313;52.894;6.492;2022-12-04T02:51:13;0.60;99.90
60309;DHT22;50313;52.894;6.492;2022-12-04T02:53:46;0.60;99.90
60309;DHT22;50313;52.894;6.492;2022-12-04T02:56:18;0.60;99.90
60309;DHT22;50313;52.894;6.492;2022-12-04T02:58:51;0.60;99.90
60309;DHT22;50313;52.894;6.492;2022-12-04T03:01:31;0.60;99.90
60309;DHT22;50313;52.894;6.492;2022-12-04T03:06:39;0.60;99.90
60309;DHT22;50313;52.894;6.492;2022-12-04T03:09:16;0.50;99.90
60309;DHT22;50313;52.894;6.492;2022-12-04T03:11:51;0.50;99.90
60309;DHT22;50313;52.894;6.492;2022-12-04T03:14:26;0.60;99.90
60309;DHT22;50313;52.894;6.492;2022-12-04T03:16:57;0.60;99.90
60309;DHT22;50313;52.894;6.492;2022-12-04T03:19:27;0.50;99.90
60309;DHT22;50313;52.894;6.492;2022-12-04T03:21:57;0.50;99.90
60309;DHT22;50313;52.894;6.492;2022-12-04T03:24:32;0.50;99.90
60309;DHT22;50313;52.894;6.492;2022-12-04T03:30:26;0.50;99.90
60309;DHT22;50313;52.894;6.492;2022-12-04T03:33:02;0.50;99.90
60309;DHT22;50313;52.894;6.492;2022-12-04T03:35:40;0.50;99.90
60309;DHT22;50313;52.894;6.492;2022-12-04T03:38:30;0.50;99.90
60309;DHT22;50313;52.894;6.492;2022-12-04T03:41:11;0.50;99.90
60309;DHT22;50313;52.894;6.492;2022-12-04T03:46:37;0.40;99.90
60309;DHT22;50313;52.894;6.492;2022-12-04T03:49:14;0.40;99.90
60309;DHT22;50313;52.894;6.492;2022-12-04T03:52:08;0.40;99.90
60309;DHT22;50313;52.894;6.492;2022-12-04T03:54:49;0.40;99.90
60309;DHT22;50313;52.894;6.492;2022-12-04T03:57:19;0.30;99.90
60309;DHT22;50313;52.894;6.492;2022-12-04T04:02:41;0.40;99.90
60309;DHT22;50313;52.894;6.492;2022-12-04T04:05:11;0.40;99.90
60309;DHT22;50313;52.894;6.492;2022-12-04T04:07:47;0.40;99.90
60309;DHT22;50313;52.894;6.492;2022-12-04T04:10:17;0.40;99.90
60309;DHT22;50313;52.894;6.492;2022-12-04T04:12:57;0.30;99.90
60309;DHT22;50313;52.894;6.492;2022-12-04T04:15:46;0.30;99.90
60309;DHT22;50313;52.894;6.492;2022-12-04T04:18:32;0.30;99.90
60309;DHT22;50313;52.894;6.492;2022-12-04T04:21:20;0.40;99.90
60309;DHT22;50313;52.894;6.492;2022-12-04T04:24:09;0.30;99.90
60309;DHT22;50313;52.894;6.492;2022-12-04T04:26:43;0.30;99.90
60309;DHT22;50313;52.894;6.492;2022-12-04T04:29:10;0.30;99.90
60309;DHT22;50313;52.894;6.492;2022-12-04T04:31:42;0.30;99.90
60309;DHT22;50313;52.894;6.492;2022-12-04T04:34:46;0.30;99.90
60309;DHT22;50313;52.894;6.492;2022-12-04T04:37:35;0.30;99.90
60309;DHT22;50313;52.894;6.492;2022-12-04T04:45:25;0.30;99.90
60309;DHT22;50313;52.894;6.492;2022-12-04T04:48:01;0.30;99.90
60309;DHT22;50313;52.894;6.492;2022-12-04T04:50:29;0.30;99.90
60309;DHT22;50313;52.894;6.492;2022-12-04T04:53:00;0.30;99.90
60309;DHT22;50313;52.894;6.492;2022-12-04T04:55:28;0.30;99.90
60309;DHT22;50313;52.894;6.492;2022-12-04T04:58:09;0.20;99.90
60309;DHT22;50313;52.894;6.492;2022-12-04T05:00:36;0.20;99.90
60309;DHT22;50313;52.894;6.492;2022-12-04T05:03:02;0.30;99.90
60309;DHT22;50313;52.894;6.492;2022-12-04T05:05:28;0.20;99.90
60309;DHT22;50313;52.894;6.492;2022-12-04T05:07:54;0.20;99.90
60309;DHT22;50313;52.894;6.492;2022-12-04T05:10:19;0.30;99.90
60309;DHT22;50313;52.894;6.492;2022-12-04T05:12:45;0.20;99.90
60309;DHT22;50313;52.894;6.492;2022-12-04T05:15:11;0.20;99.90
60309;DHT22;50313;52.894;6.492;2022-12-04T05:17:36;0.20;99.90
60309;DHT22;50313;52.894;6.492;2022-12-04T05:20:05;0.20;99.90
60309;DHT22;50313;52.894;6.492;2022-12-04T05:22:34;0.20;99.90
60309;DHT22;50313;52.894;6.492;2022-12-04T05:25:00;0.20;99.90
60309;DHT22;50313;52.894;6.492;2022-12-04T05:27:28;0.20;99.90
60309;DHT22;50313;52.894;6.492;2022-12-04T05:29:55;0.20;99.90
60309;DHT22;50313;52.894;6.492;2022-12-04T05:32:23;0.30;99.90
60309;DHT22;50313;52.894;6.492;2022-12-04T05:34:51;0.30;99.90
60309;DHT22;50313;52.894;6.492;2022-12-04T05:37:17;0.20;99.90
60309;DHT22;50313;52.894;6.492;2022-12-04T05:39:43;0.20;99.90
60309;DHT22;50313;52.894;6.492;2022-12-04T05:42:09;0.30;99.90
60309;DHT22;50313;52.894;6.492;2022-12-04T05:44:35;0.30;99.90
60309;DHT22;50313;52.894;6.492;2022-12-04T05:47:01;0.30;99.90
60309;DHT22;50313;52.894;6.492;2022-12-04T05:49:31;0.30;99.90
60309;DHT22;50313;52.894;6.492;2022-12-04T05:51:58;0.20;99.90
60309;DHT22;50313;52.894;6.492;2022-12-04T05:54:24;0.30;99.90
60309;DHT22;50313;52.894;6.492;2022-12-04T05:56:49;0.30;99.90
60309;DHT22;50313;52.894;6.492;2022-12-04T05:59:16;0.20;99.90
60309;DHT22;50313;52.894;6.492;2022-12-04T06:01:42;0.20;99.90
60309;DHT22;50313;52.894;6.492;2022-12-04T06:04:08;0.30;99.90
60309;DHT22;50313;52.894;6.492;2022-12-04T06:06:34;0.30;99.90
60309;DHT22;50313;52.894;6.492;2022-12-04T06:09:00;0.20;99.90
60309;DHT22;50313;52.894;6.492;2022-12-04T06:11:29;0.30;99.90
60309;DHT22;50313;52.894;6.492;2022-12-04T06:13:55;0.30;99.90
60309;DHT22;50313;52.894;6.492;2022-12-04T06:16:24;0.30;99.90
60309;DHT22;50313;52.894;6.492;2022-12-04T06:18:51;0.30;99.90
60309;DHT22;50313;52.894;6.492;2022-12-04T06:21:18;0.30;99.90
60309;DHT22;50313;52.894;6.492;2022-12-04T06:23:44;0.30;99.90
60309;DHT22;50313;52.894;6.492;2022-12-04T06:26:11;0.30;99.90
60309;DHT22;50313;52.894;6.492;2022-12-04T06:28:37;0.30;99.90
60309;DHT22;50313;52.894;6.492;2022-12-04T06:31:05;0.30;99.90
60309;DHT22;50313;52.894;6.492;2022-12-04T06:33:31;0.30;99.90
60309;DHT22;50313;52.894;6.492;2022-12-04T06:36:16;0.30;99.90
60309;DHT22;50313;52.894;6.492;2022-12-04T06:38:43;0.30;99.90
60309;DHT22;50313;52.894;6.492;2022-12-04T06:41:11;0.30;99.90
60309;DHT22;50313;52.894;6.492;2022-12-04T06:43:37;0.30;99.90
60309;DHT22;50313;52.894;6.492;2022-12-04T06:46:11;0.30;99.90
60309;DHT22;50313;52.894;6.492;2022-12-04T06:48:38;0.30;99.90
60309;DHT22;50313;52.894;6.492;2022-12-04T06:51:10;0.30;99.90
60309;DHT22;50313;52.894;6.492;2022-12-04T06:53:37;0.30;99.90
60309;DHT22;50313;52.894;6.492;2022-12-04T06:56:07;0.30;99.90
60309;DHT22;50313;52.894;6.492;2022-12-04T06:58:34;0.40;99.90
60309;DHT22;50313;52.894;6.492;2022-12-04T07:01:08;0.40;99.90
60309;DHT22;50313;52.894;6.492;2022-12-04T07:03:33;0.30;99.90
60309;DHT22;50313;52.894;6.492;2022-12-04T07:08:44;0.30;99.90
60309;DHT22;50313;52.894;6.492;2022-12-04T07:11:11;0.30;99.90
60309;DHT22;50313;52.894;6.492;2022-12-04T07:13:37;0.30;99.90
60309;DHT22;50313;52.894;6.492;2022-12-04T07:16:05;0.30;99.90
60309;DHT22;50313;52.894;6.492;2022-12-04T07:18:31;0.30;99.90
60309;DHT22;50313;52.894;6.492;2022-12-04T07:20:57;0.30;99.90
60309;DHT22;50313;52.894;6.492;2022-12-04T07:23:23;0.30;99.90
60309;DHT22;50313;52.894;6.492;2022-12-04T07:25:49;0.30;99.90
60309;DHT22;50313;52.894;6.492;2022-12-04T07:28:15;0.30;99.90
60309;DHT22;50313;52.894;6.492;2022-12-04T07:30:41;0.20;99.90
60309;DHT22;50313;52.894;6.492;2022-12-04T07:33:07;0.30;99.90
60309;DHT22;50313;52.894;6.492;2022-12-04T07:35:32;0.30;99.90
60309;DHT22;50313;52.894;6.492;2022-12-04T07:37:58;0.30;99.90
60309;DHT22;50313;52.894;6.492;2022-12-04T07:40:24;0.30;99.90
60309;DHT22;50313;52.894;6.492;2022-12-04T07:42:49;0.30;99.90
60309;DHT22;50313;52.894;6.492;2022-12-04T07:45:15;0.30;99.90
60309;DHT22;50313;52.894;6.492;2022-12-04T07:47:41;0.30;99.90
60309;DHT22;50313;52.894;6.492;2022-12-04T07:50:07;0.30;99.90
60309;DHT22;50313;52.894;6.492;2022-12-04T07:52:37;0.30;99.90
60309;DHT22;50313;52.894;6.492;2022-12-04T07:55:07;0.30;99.90
60309;DHT22;50313;52.894;6.492;2022-12-04T07:57:32;0.30;99.90
60309;DHT22;50313;52.894;6.492;2022-12-04T08:00:17;0.30;99.90
60309;DHT22;50313;52.894;6.492;2022-12-04T08:02:42;0.30;99.90
60309;DHT22;50313;52.894;6.492;2022-12-04T08:05:08;0.30;99.90
60309;DHT22;50313;52.894;6.492;2022-12-04T08:07:34;0.30;99.90
60309;DHT22;50313;52.894;6.492;2022-12-04T08:10:00;0.30;99.90
60309;DHT22;50313;52.894;6.492;2022-12-04T08:12:25;0.40;99.90
60309;DHT22;50313;52.894;6.492;2022-12-04T08:14:51;0.40;99.90
60309;DHT22;50313;52.894;6.492;2022-12-04T08:17:17;0.40;99.90
60309;DHT22;50313;52.894;6.492;2022-12-04T08:19:42;0.40;99.90
60309;DHT22;50313;52.894;6.492;2022-12-04T08:22:08;0.40;99.90
60309;DHT22;50313;52.894;6.492;2022-12-04T08:24:34;0.40;99.90
60309;DHT22;50313;52.894;6.492;2022-12-04T08:27:00;0.50;99.90
60309;DHT22;50313;52.894;6.492;2022-12-04T08:29:26;0.50;99.90
60309;DHT22;50313;52.894;6.492;2022-12-04T08:31:52;0.50;99.90
60309;DHT22;50313;52.894;6.492;2022-12-04T08:34:18;0.50;99.90
60309;DHT22;50313;52.894;6.492;2022-12-04T08:36:44;0.50;99.90
60309;DHT22;50313;52.894;6.492;2022-12-04T08:39:10;0.50;99.90
60309;DHT22;50313;52.894;6.492;2022-12-04T08:41:37;0.50;99.90
60309;DHT22;50313;52.894;6.492;2022-12-04T08:44:03;0.60;99.90
60309;DHT22;50313;52.894;6.492;2022-12-04T08:46:29;0.60;99.90
60309;DHT22;50313;52.894;6.492;2022-12-04T08:48:55;0.60;99.90
60309;DHT22;50313;52.894;6.492;2022-12-04T08:51:26;0.50;99.90
60309;DHT22;50313;52.894;6.492;2022-12-04T08:53:55;0.60;99.90
60309;DHT22;50313;52.894;6.492;2022-12-04T08:56:21;0.60;99.90
60309;DHT22;50313;52.894;6.492;2022-12-04T08:58:47;0.60;99.90
60309;DHT22;50313;52.894;6.492;2022-12-04T09:01:13;0.60;99.90
60309;DHT22;50313;52.894;6.492;2022-12-04T09:03:40;0.60;99.90
60309;DHT22;50313;52.894;6.492;2022-12-04T09:06:07;0.70;99.90
60309;DHT22;50313;52.894;6.492;2022-12-04T09:08:33;0.70;99.90
60309;DHT22;50313;52.894;6.492;2022-12-04T09:11:05;0.70;99.90
60309;DHT22;50313;52.894;6.492;2022-12-04T09:13:31;0.70;99.90
60309;DHT22;50313;52.894;6.492;2022-12-04T09:15:57;0.70;99.90
60309;DHT22;50313;52.894;6.492;2022-12-04T09:18:22;0.70;99.90
60309;DHT22;50313;52.894;6.492;2022-12-04T09:20:59;0.80;99.90
60309;DHT22;50313;52.894;6.492;2022-12-04T09:23:26;0.80;99.90
60309;DHT22;50313;52.894;6.492;2022-12-04T09:25:52;0.80;99.90
60309;DHT22;50313;52.894;6.492;2022-12-04T09:28:18;0.80;99.90
60309;DHT22;50313;52.894;6.492;2022-12-04T09:30:44;0.90;99.90
60309;DHT22;50313;52.894;6.492;2022-12-04T09:33:10;0.90;99.90
60309;DHT22;50313;52.894;6.492;2022-12-04T09:35:37;0.90;99.90
60309;DHT22;50313;52.894;6.492;2022-12-04T09:38:03;0.90;99.90
60309;DHT22;50313;52.894;6.492;2022-12-04T09:40:37;0.90;99.90
60309;DHT22;50313;52.894;6.492;2022-12-04T09:43:28;0.90;99.90
60309;DHT22;50313;52.894;6.492;2022-12-04T09:46:00;0.90;99.90
60309;DHT22;50313;52.894;6.492;2022-12-04T09:48:32;1.00;99.90
60309;DHT22;50313;52.894;6.492;2022-12-04T09:50:59;0.90;99.90
60309;DHT22;50313;52.894;6.492;2022-12-04T09:56:13;1.00;99.90
60309;DHT22;50313;52.894;6.492;2022-12-04T09:59:05;1.10;99.90
60309;DHT22;50313;52.894;6.492;2022-12-04T10:01:45;1.10;99.90
60309;DHT22;50313;52.894;6.492;2022-12-04T10:04:12;1.10;99.90
60309;DHT22;50313;52.894;6.492;2022-12-04T10:09:48;1.20;99.90
60309;DHT22;50313;52.894;6.492;2022-12-04T10:17:54;1.30;99.90
60309;DHT22;50313;52.894;6.492;2022-12-04T10:23:35;1.30;99.90
60309;DHT22;50313;52.894;6.492;2022-12-04T10:26:17;1.30;99.90
60309;DHT22;50313;52.894;6.492;2022-12-04T10:28:52;1.30;99.90
60309;DHT22;50313;52.894;6.492;2022-12-04T10:31:19;1.40;99.90
60309;DHT22;50313;52.894;6.492;2022-12-04T10:34:01;1.30;99.90
60309;DHT22;50313;52.894;6.492;2022-12-04T10:36:33;1.40;99.90
60309;DHT22;50313;52.894;6.492;2022-12-04T10:39:05;1.50;99.90
60309;DHT22;50313;52.894;6.492;2022-12-04T10:41:49;1.40;99.90
60309;DHT22;50313;52.894;6.492;2022-12-04T10:44:18;1.50;99.90
60309;DHT22;50313;52.894;6.492;2022-12-04T10:46:45;1.50;99.90
60309;DHT22;50313;52.894;6.492;2022-12-04T10:49:21;1.50;99.90
60309;DHT22;50313;52.894;6.492;2022-12-04T10:51:48;1.50;99.90
60309;DHT22;50313;52.894;6.492;2022-12-04T10:57:07;1.60;99.90
60309;DHT22;50313;52.894;6.492;2022-12-04T10:59:34;1.70;99.90
60309;DHT22;50313;52.894;6.492;2022-12-04T11:02:04;1.70;99.90
60309;DHT22;50313;52.894;6.492;2022-12-04T11:04:37;1.70;99.90
60309;DHT22;50313;52.894;6.492;2022-12-04T11:07:15;1.70;99.90
60309;DHT22;50313;52.894;6.492;2022-12-04T11:09:52;1.70;99.90
60309;DHT22;50313;52.894;6.492;2022-12-04T11:12:18;1.80;99.90
60309;DHT22;50313;52.894;6.492;2022-12-04T11:14:46;1.90;99.90
60309;DHT22;50313;52.894;6.492;2022-12-04T11:17:16;1.90;99.90
60309;DHT22;50313;52.894;6.492;2022-12-04T11:19:42;1.90;99.90
60309;DHT22;50313;52.894;6.492;2022-12-04T11:24:38;1.90;99.90
60309;DHT22;50313;52.894;6.492;2022-12-04T11:27:05;2.00;99.90
60309;DHT22;50313;52.894;6.492;2022-12-04T11:29:36;2.00;99.90
60309;DHT22;50313;52.894;6.492;2022-12-04T11:32:04;2.00;99.90
60309;DHT22;50313;52.894;6.492;2022-12-04T11:34:37;2.10;99.90
60309;DHT22;50313;52.894;6.492;2022-12-04T11:37:03;2.10;99.90
60309;DHT22;50313;52.894;6.492;2022-12-04T11:39:36;2.20;99.90
60309;DHT22;50313;52.894;6.492;2022-12-04T11:44:38;2.20;99.90
60309;DHT22;50313;52.894;6.492;2022-12-04T11:47:13;2.20;99.90
60309;DHT22;50313;52.894;6.492;2022-12-04T11:49:41;2.30;99.90
60309;DHT22;50313;52.894;6.492;2022-12-04T11:52:40;2.30;99.90
60309;DHT22;50313;52.894;6.492;2022-12-04T11:55:40;2.30;99.90
60309;DHT22;50313;52.894;6.492;2022-12-04T12:03:33;2.20;99.90
60309;DHT22;50313;52.894;6.492;2022-12-04T12:11:20;2.40;99.90
60309;DHT22;50313;52.894;6.492;2022-12-04T12:14:07;2.20;99.90
60309;DHT22;50313;52.894;6.492;2022-12-04T12:19:42;2.20;99.90
60309;DHT22;50313;52.894;6.492;2022-12-04T12:33:28;2.30;99.90
60309;DHT22;50313;52.894;6.492;2022-12-04T12:36:08;2.30;99.90
60309;DHT22;50313;52.894;6.492;2022-12-04T12:41:15;2.30;99.90
60309;DHT22;50313;52.894;6.492;2022-12-04T12:43:47;2.30;99.90
60309;DHT22;50313;52.894;6.492;2022-12-04T12:51:35;2.30;99.90
60309;DHT22;50313;52.894;6.492;2022-12-04T12:56:40;2.30;99.90
60309;DHT22;50313;52.894;6.492;2022-12-04T12:59:12;2.40;99.90
60309;DHT22;50313;52.894;6.492;2022-12-04T13:01:52;2.40;99.90
60309;DHT22;50313;52.894;6.492;2022-12-04T13:04:36;2.40;99.90
60309;DHT22;50313;52.894;6.492;2022-12-04T13:07:09;2.40;99.90
60309;DHT22;50313;52.894;6.492;2022-12-04T13:09:41;2.30;99.90
60309;DHT22;50313;52.894;6.492;2022-12-04T13:12:12;2.40;99.90
60309;DHT22;50313;52.894;6.492;2022-12-04T13:14:39;2.40;99.90
60309;DHT22;50313;52.894;6.492;2022-12-04T13:17:19;2.40;99.90
60309;DHT22;50313;52.894;6.492;2022-12-04T13:19:52;2.40;99.90
60309;DHT22;50313;52.894;6.492;2022-12-04T13:22:49;2.40;99.90
60309;DHT22;50313;52.894;6.492;2022-12-04T13:25:22;2.40;99.90
60309;DHT22;50313;52.894;6.492;2022-12-04T13:39:23;2.40;99.90
60309;DHT22;50313;52.894;6.492;2022-12-04T13:41:58;2.50;99.90
60309;DHT22;50313;52.894;6.492;2022-12-04T13:44:26;2.50;99.90
60309;DHT22;50313;52.894;6.492;2022-12-04T13:47:04;2.50;99.90
60309;DHT22;50313;52.894;6.492;2022-12-04T13:49:35;2.50;99.90
60309;DHT22;50313;52.894;6.492;2022-12-04T13:52:04;2.50;99.90
60309;DHT22;50313;52.894;6.492;2022-12-04T13:54:35;2.50;99.90
60309;DHT22;50313;52.894;6.492;2022-12-04T13:59:39;2.50;99.90
60309;DHT22;50313;52.894;6.492;2022-12-04T14:02:33;2.50;99.90
60309;DHT22;50313;52.894;6.492;2022-12-04T14:05:09;2.50;99.90
60309;DHT22;50313;52.894;6.492;2022-12-04T14:07:59;2.50;99.90
60309;DHT22;50313;52.894;6.492;2022-12-04T14:10:31;2.50;99.90
60309;DHT22;50313;52.894;6.492;2022-12-04T14:13:03;2.50;99.90
60309;DHT22;50313;52.894;6.492;2022-12-04T14:15:32;2.50;99.90
60309;DHT22;50313;52.894;6.492;2022-12-04T14:18:00;2.50;99.90
60309;DHT22;50313;52.894;6.492;2022-12-04T14:20:28;2.40;99.90
60309;DHT22;50313;52.894;6.492;2022-12-04T14:22:54;2.40;99.90
60309;DHT22;50313;52.894;6.492;2022-12-04T14:25:30;2.40;99.90
60309;DHT22;50313;52.894;6.492;2022-12-04T14:27:57;2.40;99.90
60309;DHT22;50313;52.894;6.492;2022-12-04T14:30:36;2.40;99.90
60309;DHT22;50313;52.894;6.492;2022-12-04T14:33:20;2.40;99.90
60309;DHT22;50313;52.894;6.492;2022-12-04T14:36:02;2.40;99.90
60309;DHT22;50313;52.894;6.492;2022-12-04T14:38:28;2.40;99.90
60309;DHT22;50313;52.894;6.492;2022-12-04T14:40:55;2.30;99.90
60309;DHT22;50313;52.894;6.492;2022-12-04T14:43:24;2.40;99.90
60309;DHT22;50313;52.894;6.492;2022-12-04T14:46:08;2.40;99.90
60309;DHT22;50313;52.894;6.492;2022-12-04T14:51:36;2.40;99.90
60309;DHT22;50313;52.894;6.492;2022-12-04T14:54:40;2.40;99.90
60309;DHT22;50313;52.894;6.492;2022-12-04T14:58:23;2.30;99.90
60309;DHT22;50313;52.894;6.492;2022-12-04T15:00:20;2.40;99.90
60309;DHT22;50313;52.894;6.492;2022-12-04T15:02:55;2.40;99.90
60309;DHT22;50313;52.894;6.492;2022-12-04T15:05:30;2.40;99.90
60309;DHT22;50313;52.894;6.492;2022-12-04T15:08:03;2.30;99.90
60309;DHT22;50313;52.894;6.492;2022-12-04T15:10:31;2.30;99.90
60309;DHT22;50313;52.894;6.492;2022-12-04T15:15:52;2.30;99.90
60309;DHT22;50313;52.894;6.492;2022-12-04T15:18:18;2.30;99.90
60309;DHT22;50313;52.894;6.492;2022-12-04T15:26:02;2.30;99.90
60309;DHT22;50313;52.894;6.492;2022-12-04T15:28:33;2.30;99.90
60309;DHT22;50313;52.894;6.492;2022-12-04T15:31:01;2.30;99.90
60309;DHT22;50313;52.894;6.492;2022-12-04T15:33:31;2.30;99.90
60309;DHT22;50313;52.894;6.492;2022-12-04T15:36:08;2.30;99.90
60309;DHT22;50313;52.894;6.492;2022-12-04T15:38:37;2.30;99.90
60309;DHT22;50313;52.894;6.492;2022-12-04T15:41:03;2.40;99.90
60309;DHT22;50313;52.894;6.492;2022-12-04T15:43:32;2.30;99.90
60309;DHT22;50313;52.894;6.492;2022-12-04T15:46:14;2.40;99.90
60309;DHT22;50313;52.894;6.492;2022-12-04T15:48:44;2.40;99.90
60309;DHT22;50313;52.894;6.492;2022-12-04T15:51:11;2.50;99.90
60309;DHT22;50313;52.894;6.492;2022-12-04T15:53:39;2.40;99.90
60309;DHT22;50313;52.894;6.492;2022-12-04T15:56:16;2.40;99.90
60309;DHT22;50313;52.894;6.492;2022-12-04T15:58:58;2.40;99.90
60309;DHT22;50313;52.894;6.492;2022-12-04T16:01:24;2.40;99.90
60309;DHT22;50313;52.894;6.492;2022-12-04T16:03:52;2.40;99.90
60309;DHT22;50313;52.894;6.492;2022-12-04T16:06:22;2.40;99.90
60309;DHT22;50313;52.894;6.492;2022-12-04T16:09:16;2.40;99.90
60309;DHT22;50313;52.894;6.492;2022-12-04T16:11:44;2.50;99.90
60309;DHT22;50313;52.894;6.492;2022-12-04T16:16:37;2.50;99.90
60309;DHT22;50313;52.894;6.492;2022-12-04T16:19:33;2.50;99.90
60309;DHT22;50313;52.894;6.492;2022-12-04T16:22:02;2.60;99.90
60309;DHT22;50313;52.894;6.492;2022-12-04T16:24:28;2.60;99.90
60309;DHT22;50313;52.894;6.492;2022-12-04T16:26:54;2.70;99.90
60309;DHT22;50313;52.894;6.492;2022-12-04T16:29:21;2.60;99.90
60309;DHT22;50313;52.894;6.492;2022-12-04T16:31:48;2.70;99.90
60309;DHT22;50313;52.894;6.492;2022-12-04T16:34:14;2.70;99.90
60309;DHT22;50313;52.894;6.492;2022-12-04T16:36:46;2.70;99.90
60309;DHT22;50313;52.894;6.492;2022-12-04T16:39:11;2.70;99.90
60309;DHT22;50313;52.894;6.492;2022-12-04T16:41:37;2.70;99.90
60309;DHT22;50313;52.894;6.492;2022-12-04T16:44:10;2.80;99.90
60309;DHT22;50313;52.894;6.492;2022-12-04T16:46:36;2.80;99.90
60309;DHT22;50313;52.894;6.492;2022-12-04T16:49:02;2.90;99.90
60309;DHT22;50313;52.894;6.492;2022-12-04T16:51:27;2.80;99.90
60309;DHT22;50313;52.894;6.492;2022-12-04T16:53:54;2.80;99.90
60309;DHT22;50313;52.894;6.492;2022-12-04T16:56:20;2.80;99.90
60309;DHT22;50313;52.894;6.492;2022-12-04T16:58:46;2.90;99.90
60309;DHT22;50313;52.894;6.492;2022-12-04T17:01:25;2.80;99.90
60309;DHT22;50313;52.894;6.492;2022-12-04T17:03:51;2.80;99.90
60309;DHT22;50313;52.894;6.492;2022-12-04T17:06:17;2.90;99.90
60309;DHT22;50313;52.894;6.492;2022-12-04T17:08:43;2.90;99.90
60309;DHT22;50313;52.894;6.492;2022-12-04T17:11:14;2.90;99.90
60309;DHT22;50313;52.894;6.492;2022-12-04T17:13:40;2.90;99.90
60309;DHT22;50313;52.894;6.492;2022-12-04T17:16:06;2.90;99.90
60309;DHT22;50313;52.894;6.492;2022-12-04T17:18:33;2.90;99.90
60309;DHT22;50313;52.894;6.492;2022-12-04T17:21:03;2.90;99.90
60309;DHT22;50313;52.894;6.492;2022-12-04T17:23:29;2.90;99.90
60309;DHT22;50313;52.894;6.492;2022-12-04T17:26:00;2.90;99.90
60309;DHT22;50313;52.894;6.492;2022-12-04T17:28:26;2.90;99.90
60309;DHT22;50313;52.894;6.492;2022-12-04T17:30:51;2.90;99.90
60309;DHT22;50313;52.894;6.492;2022-12-04T17:33:17;2.90;99.90
60309;DHT22;50313;52.894;6.492;2022-12-04T17:35:43;2.90;99.90
60309;DHT22;50313;52.894;6.492;2022-12-04T17:38:08;2.90;99.90
60309;DHT22;50313;52.894;6.492;2022-12-04T17:40:34;3.00;99.90
60309;DHT22;50313;52.894;6.492;2022-12-04T17:43:00;3.00;99.90
60309;DHT22;50313;52.894;6.492;2022-12-04T17:45:26;3.00;99.90
60309;DHT22;50313;52.894;6.492;2022-12-04T17:47:52;3.00;99.90
60309;DHT22;50313;52.894;6.492;2022-12-04T17:50:18;3.00;99.90
60309;DHT22;50313;52.894;6.492;2022-12-04T17:52:44;3.00;99.90
60309;DHT22;50313;52.894;6.492;2022-12-04T17:55:09;3.10;99.90
60309;DHT22;50313;52.894;6.492;2022-12-04T17:57:35;3.00;99.90
60309;DHT22;50313;52.894;6.492;2022-12-04T18:00:01;3.00;99.90
60309;DHT22;50313;52.894;6.492;2022-12-04T18:02:26;3.10;99.90